Time;durP1;ratioP1;P1;durP2;ratioP2;P2;SDS_P1;SDS_P2;PMS_P1;PMS_P2;Temp;Humidity;BMP_temperature;BMP_pressure;BME280_temperature;BME280_humidity;BME280_pressure;Samples;Min_cycle;Max_cycle;Signal;HPM_P1;HPM_P2
2023/09/11 00:01:11;;;;;;;;;;;;;;;23.70;48.90;99016.97;67826;1278;1016453;-66
2023/09/11 00:04:17;;;;;;;25.40;9.40;;;;;;;23.65;49.06;99013.11;67804;1278;1016291;-63
2023/09/11 00:07:20;;;;;;;;;;;;;;;23.66;49.00;99010.63;67820;1278;1016437;-66
2023/09/11 00:10:22;;;;;;;24.60;9.30;;;;;;;23.42;49.45;99008.80;67733;1278;1018682;-65
2023/09/11 00:13:24;;;;;;;;;;;;;;;23.40;49.52;99006.77;67781;1276;1016450;-65
2023/09/11 00:16:27;;;;;;;25.80;9.60;;;;;;;23.43;49.64;99003.98;67727;1278;1016456;-65
2023/09/11 00:19:29;;;;;;;;;;;;;;;23.41;49.60;99002.55;67838;1278;1015954;-65
2023/09/11 00:22:32;;;;;;;30.20;10.10;;;;;;;23.41;49.78;98999.71;67804;1278;1018952;-65
2023/09/11 00:25:34;;;;;;;;;;;;;;;23.42;49.49;98997.26;67715;1278;1016061;-65
2023/09/11 00:28:37;;;;;;;26.30;9.60;;;;;;;23.41;49.42;98996.70;67788;1278;1016476;-65
2023/09/11 00:31:40;;;;;;;;;;;;;;;23.37;49.46;98991.59;67803;1278;1016262;-65
2023/09/11 00:34:42;;;;;;;25.10;10.10;;;;;;;23.37;49.44;98988.08;67783;1278;1016287;-66
2023/09/11 00:37:44;;;;;;;;;;;;;;;23.26;49.62;98985.30;67765;1278;1016392;-63
2023/09/11 00:40:47;;;;;;;25.70;10.00;;;;;;;23.25;49.47;98983.95;67723;1278;1016506;-66
2023/09/11 00:43:49;;;;;;;;;;;;;;;22.98;49.97;98987.11;67797;1278;1016132;-66
2023/09/11 00:46:51;;;;;;;25.80;10.00;;;;;;;22.93;50.18;98986.60;67770;1278;1016414;-66
2023/09/11 00:49:54;;;;;;;;;;;;;;;22.93;50.13;98989.29;67781;1278;1016460;-66
2023/09/11 00:52:56;;;;;;;28.50;10.60;;;;;;;22.82;50.38;98992.84;67765;1278;1018714;-66
2023/09/11 00:55:59;;;;;;;;;;;;;;;22.74;50.50;98994.79;67771;1278;1016446;-66
2023/09/11 00:59:01;;;;;;;26.70;10.20;;;;;;;22.70;50.63;98992.17;67810;1278;1016179;-66
2023/09/11 01:02:04;;;;;;;26.40;9.40;;;;;;;22.64;50.83;98991.91;67794;1278;1016393;-66
2023/09/11 01:05:07;;;;;;;;;;;;;;;22.73;50.65;98990.89;67798;1278;1016042;-65
2023/09/11 01:08:09;;;;;;;22.30;8.30;;;;;;;22.73;50.37;98991.84;67788;1278;1016148;-66
2023/09/11 01:11:12;;;;;;;;;;;;;;;22.62;50.55;98992.52;67791;1278;1016704;-66
2023/09/11 01:14:14;;;;;;;25.00;9.20;;;;;;;22.68;50.53;98990.23;67775;1278;1016234;-66
2023/09/11 01:17:17;;;;;;;;;;;;;;;22.72;50.52;98985.69;67746;1278;1018355;-65
2023/09/11 01:20:19;;;;;;;23.50;8.90;;;;;;;22.82;50.35;98989.23;67767;1278;1016284;-66
2023/09/11 01:23:22;;;;;;;23.00;8.70;;;;;;;22.77;50.37;98985.31;67792;1278;1016461;-63
2023/09/11 01:26:24;;;;;;;;;;;;;;;22.84;50.17;98983.67;67772;1278;1016481;-64
2023/09/11 01:29:27;;;;;;;23.60;8.60;;;;;;;22.97;49.89;98981.48;67785;1278;1018195;-63
2023/09/11 01:32:29;;;;;;;;;;;;;;;22.86;49.94;98981.64;67777;1278;1015784;-64
2023/09/11 01:35:31;;;;;;;23.40;8.90;;;;;;;22.68;50.34;98979.02;67669;1278;1015965;-64
2023/09/11 01:38:34;;;;;;;24.50;9.10;;;;;;;22.58;50.51;98970.27;67764;1278;1016340;-64
2023/09/11 01:41:36;;;;;;;25.20;9.40;;;;;;;22.52;50.75;98967.17;67797;1278;1016442;-63
2023/09/11 01:44:39;;;;;;;23.30;8.30;;;;;;;22.46;50.83;98969.82;67808;1278;1016500;-64
2023/09/11 01:47:41;;;;;;;24.80;8.30;;;;;;;22.41;50.90;98969.98;67763;1278;1016408;-64
2023/09/11 01:50:43;;;;;;;18.70;5.80;;;;;;;22.30;51.00;98977.73;67731;1278;1016239;-64
2023/09/11 01:53:46;;;;;;;14.90;4.80;;;;;;;22.15;50.65;98979.70;67750;1278;1016508;-64
2023/09/11 01:56:48;;;;;;;22.90;7.30;;;;;;;22.12;50.56;98980.14;67767;1278;1016400;-65
2023/09/11 01:59:51;;;;;;;25.90;9.30;;;;;;;22.13;50.77;98976.66;67803;1278;1016587;-64
2023/09/11 02:02:55;;;;;;;22.40;9.20;;;;;;;22.10;51.34;98978.57;67796;1278;1017365;-64
2023/09/11 02:05:57;;;;;;;24.90;9.10;;;;;;;22.24;51.01;98972.52;67749;1278;1016473;-64
2023/09/11 02:09:00;;;;;;;;;;;;;;;22.38;50.73;98966.74;67771;1278;1016442;-64
2023/09/11 02:12:02;;;;;;;26.10;9.50;;;;;;;22.40;51.02;98971.13;67782;1278;1016457;-64
2023/09/11 02:15:05;;;;;;;;;;;;;;;22.28;51.37;98973.62;67799;1278;1017047;-64
2023/09/11 02:18:07;;;;;;;23.80;9.00;;;;;;;22.39;50.84;98970.19;67786;1278;1016543;-64
2023/09/11 02:21:09;;;;;;;26.80;9.50;;;;;;;22.36;50.61;98970.54;67726;1278;1016387;-64
2023/09/11 02:24:12;;;;;;;;;;;;;;;22.20;50.80;98971.33;67792;1278;1017478;-64
2023/09/11 02:27:14;;;;;;;23.60;8.70;;;;;;;22.14;50.76;98971.27;67771;1278;1016449;-64
2023/09/11 02:30:17;;;;;;;22.60;7.40;;;;;;;22.22;50.37;98972.48;67810;1278;1016497;-64
2023/09/11 02:33:19;;;;;;;24.50;8.60;;;;;;;22.17;50.27;98971.23;67791;1278;1016478;-64
2023/09/11 02:36:21;;;;;;;22.80;9.20;;;;;;;22.10;50.74;98966.14;67757;1278;1016176;-64
2023/09/11 02:39:24;;;;;;;22.00;8.50;;;;;;;22.18;50.71;98969.13;67756;1278;1017979;-65
2023/09/11 02:42:26;;;;;;;23.10;8.90;;;;;;;22.17;50.73;98964.72;67766;1278;1016134;-63
2023/09/11 02:45:29;;;;;;;25.20;8.90;;;;;;;22.28;50.56;98962.27;67809;1278;1016864;-65
2023/09/11 02:48:32;;;;;;;;;;;;;;;22.34;50.17;98962.77;67772;1278;1018845;-64
2023/09/11 02:51:34;;;;;;;21.30;8.30;;;;;;;22.30;50.14;98961.84;67755;1278;1016414;-64
2023/09/11 02:54:37;;;;;;;;;;;;;;;22.32;50.17;98953.82;67749;1278;1016491;-64
2023/09/11 02:57:39;;;;;;;23.30;8.90;;;;;;;22.26;50.19;98950.69;67771;1278;1016887;-65
2023/09/11 03:00:42;;;;;;;22.70;8.50;;;;;;;22.25;50.11;98950.30;67718;1278;1016284;-65
2023/09/11 03:03:44;;;;;;;;;;;;;;;22.14;50.11;98952.63;67782;1278;1016257;-64
2023/09/11 03:06:47;;;;;;;23.20;9.10;;;;;;;22.02;50.25;98951.33;67793;1278;1016438;-65
2023/09/11 03:09:49;;;;;;;;;;;;;;;21.93;50.31;98947.05;67791;1278;1016228;-64
2023/09/11 03:12:52;;;;;;;23.90;8.60;;;;;;;21.91;50.38;98951.73;67752;1278;1017994;-65
2023/09/11 03:15:54;;;;;;;21.10;8.10;;;;;;;21.81;50.60;98945.86;67745;1278;1016347;-64
2023/09/11 03:18:56;;;;;;;21.80;8.30;;;;;;;21.82;50.53;98948.42;67763;1278;1015873;-65
2023/09/11 03:21:59;;;;;;;21.80;7.80;;;;;;;21.92;50.38;98943.62;67811;1278;1016446;-64
2023/09/11 03:25:01;;;;;;;22.50;8.60;;;;;;;21.95;50.40;98945.42;67761;1278;1016398;-63
2023/09/11 03:28:04;;;;;;;23.00;8.10;;;;;;;21.83;50.56;98945.30;67773;1278;1016177;-64
2023/09/11 03:31:06;;;;;;;;;;;;;;;21.77;50.78;98939.51;67755;1278;1016513;-64
2023/09/11 03:34:09;;;;;;;22.90;8.20;;;;;;;21.70;51.05;98939.20;67690;1278;1016490;-64
2023/09/11 03:37:11;;;;;;;24.60;8.50;;;;;;;21.71;51.22;98936.59;67794;1278;1016344;-64
2023/09/11 03:40:14;;;;;;;;;;;;;;;21.69;50.97;98935.52;67797;1278;1016426;-64
2023/09/11 03:43:16;;;;;;;23.70;8.60;;;;;;;21.66;51.25;98933.58;67739;1278;1016120;-64
2023/09/11 03:46:18;;;;;;;27.40;8.90;;;;;;;21.68;50.86;98932.11;67727;1278;1016463;-64
2023/09/11 03:49:21;;;;;;;28.30;8.40;;;;;;;21.58;50.89;98930.71;67747;1278;1016354;-65
2023/09/11 03:52:23;;;;;;;22.10;8.50;;;;;;;21.66;50.93;98926.70;67791;1278;1016035;-64
2023/09/11 03:55:26;;;;;;;24.00;8.50;;;;;;;21.71;50.93;98930.94;67757;1278;1016458;-64
2023/09/11 03:58:28;;;;;;;;;;;;;;;21.59;51.06;98925.41;67813;1278;1016470;-64
2023/09/11 04:01:31;;;;;;;21.20;8.10;;;;;;;21.58;51.05;98923.44;67776;1278;1016258;-64
2023/09/11 04:04:33;;;;;;;20.60;7.80;;;;;;;21.60;51.09;98924.77;67755;1278;1016428;-64
2023/09/11 04:07:35;;;;;;;;;;;;;;;21.63;51.21;98922.89;67777;1278;1016106;-64
2023/09/11 04:10:38;;;;;;;19.30;6.70;;;;;;;21.60;51.03;98922.77;67816;1278;1018135;-64
2023/09/11 04:13:40;;;;;;;;;;;;;;;21.52;51.14;98921.58;67822;1278;1016317;-64
2023/09/11 04:16:43;;;;;;;20.50;6.80;;;;;;;21.53;51.06;98919.61;67746;1278;1016445;-64
2023/09/11 04:19:45;;;;;;;22.20;7.30;;;;;;;21.56;51.09;98915.72;67710;1278;1016467;-64
2023/09/11 04:22:47;;;;;;;27.50;8.20;;;;;;;21.54;51.00;98911.88;67760;1278;1016320;-63
2023/09/11 04:25:50;;;;;;;25.00;10.30;;;;;;;21.55;51.54;98914.23;67741;1278;1016290;-64
2023/09/11 04:28:54;;;;;;;20.30;7.60;;;;;;;21.66;51.73;98913.85;67777;1278;1016239;-63
2023/09/11 04:31:57;;;;;;;22.80;7.50;;;;;;;21.65;51.18;98914.34;67759;1278;1015985;-64
2023/09/11 04:34:59;;;;;;;;;;;;;;;21.48;51.67;98915.98;67770;1278;1016364;-63
2023/09/11 04:38:02;;;;;;;19.20;5.80;;;;;;;21.58;51.74;98914.66;67812;1278;1016194;-63
2023/09/11 04:41:04;;;;;;;19.20;6.80;;;;;;;21.70;51.57;98914.13;67785;1278;1016474;-64
2023/09/11 04:44:07;;;;;;;19.70;6.30;;;;;;;21.81;51.98;98912.27;67746;1278;1016290;-63
2023/09/11 04:47:09;;;;;;;;;;;;;;;21.91;51.87;98909.43;67806;1278;1016458;-64
2023/09/11 04:50:11;;;;;;;19.10;6.60;;;;;;;22.03;51.72;98905.85;67768;1278;1016487;-63
2023/09/11 04:53:14;;;;;;;21.10;7.00;;;;;;;22.18;51.47;98909.59;67760;1278;1016730;-63
2023/09/11 04:56:16;;;;;;;21.90;7.50;;;;;;;22.35;51.16;98907.25;67798;1278;1016099;-64
2023/09/11 04:59:19;;;;;;;23.40;8.00;;;;;;;22.49;51.27;98903.52;67812;1278;1016519;-64
2023/09/11 05:02:21;;;;;;;25.00;8.80;;;;;;;22.60;51.65;98905.14;67797;1278;1016223;-65
2023/09/11 05:05:23;;;;;;;31.30;10.40;;;;;;;22.86;51.36;98902.65;67783;1278;1016328;-64
2023/09/11 05:08:26;;;;;;;;;;;;;;;23.01;51.20;98903.14;67772;1278;1016387;-65
2023/09/11 05:11:28;;;;;;;25.20;9.30;;;;;;;23.10;51.16;98907.06;67770;1278;1016429;-63
2023/09/11 05:14:30;;;;;;;;;;;;;;;23.26;50.91;98909.35;67776;1278;1016754;-64
2023/09/11 05:17:33;;;;;;;25.90;9.00;;;;;;;23.42;51.22;98909.98;67809;1278;1016195;-64
2023/09/11 05:20:35;;;;;;;24.40;8.30;;;;;;;23.70;51.10;98910.04;67763;1278;1016880;-64
2023/09/11 05:23:38;;;;;;;24.40;9.10;;;;;;;23.92;51.09;98914.31;67701;1278;1016366;-64
2023/09/11 05:26:40;;;;;;;29.70;11.30;;;;;;;24.25;50.92;98912.71;67776;1278;1016263;-64
2023/09/11 05:29:43;;;;;;;;;;;;;;;24.58;50.82;98907.98;67779;1278;1016480;-64
2023/09/11 05:32:51;;;;;;;29.90;10.90;;;;;;;24.86;50.72;98906.09;67816;1278;1019120;-64
2023/09/11 05:35:53;;;;;;;27.20;11.20;;;;;;;25.08;50.65;98899.48;67813;1278;1016313;-64
2023/09/11 05:38:56;;;;;;;;;;;;;;;25.34;50.68;98901.73;67787;1278;1016250;-64
2023/09/11 05:41:58;;;;;;;27.50;11.30;;;;;;;25.53;50.93;98902.88;67754;1278;1016046;-63
2023/09/11 05:45:01;;;;;;;;;;;;;;;25.78;50.78;98903.77;67795;1278;1016479;-64
2023/09/11 05:48:03;;;;;;;28.40;11.70;;;;;;;25.81;50.87;98905.12;67794;1278;1016862;-64
2023/09/11 05:51:05;;;;;;;;;;;;;;;25.99;50.79;98905.98;67835;1278;1018822;-64
2023/09/11 05:54:08;;;;;;;27.20;11.80;;;;;;;26.34;50.58;98903.79;67797;1278;1016362;-63
2023/09/11 05:57:10;;;;;;;;;;;;;;;26.67;50.39;98903.73;67725;1278;1018873;-64
2023/09/11 06:00:13;;;;;;;30.80;12.70;;;;;;;27.04;49.84;98900.89;67769;1278;1017399;-64
2023/09/11 06:03:15;;;;;;;28.10;11.40;;;;;;;27.34;49.70;98906.39;67764;1278;1016290;-64
2023/09/11 06:06:17;;;;;;;28.80;12.40;;;;;;;27.60;49.60;98904.39;67634;1278;1166844;-64
2023/09/11 06:09:20;;;;;;;28.50;11.60;;;;;;;27.88;49.19;98906.60;67790;1278;1016749;-64
2023/09/11 06:12:23;;;;;;;28.10;11.30;;;;;;;28.06;49.14;98903.95;67765;1278;1016452;-65
2023/09/11 06:15:25;;;;;;;31.40;11.90;;;;;;;28.37;48.70;98903.24;67758;1278;1016504;-63
2023/09/11 06:18:28;;;;;;;27.70;10.60;;;;;;;28.59;48.81;98904.45;67747;1278;1016492;-65
2023/09/11 06:21:30;;;;;;;26.80;10.80;;;;;;;28.91;48.28;98901.68;67768;1278;1018760;-63
2023/09/11 06:24:33;;;;;;;29.60;11.00;;;;;;;29.21;47.91;98901.23;67748;1278;1016447;-64
2023/09/11 06:27:35;;;;;;;32.50;11.70;;;;;;;29.24;47.79;98902.64;67807;1278;1016696;-64
2023/09/11 06:30:38;;;;;;;27.50;10.90;;;;;;;29.42;47.86;98900.01;67754;1278;1016441;-64
2023/09/11 06:33:40;;;;;;;27.00;10.90;;;;;;;29.68;47.70;98899.92;67739;1278;1016619;-65
2023/09/11 06:36:42;;;;;;;27.80;10.90;;;;;;;29.83;47.44;98899.85;67724;1278;1016424;-64
2023/09/11 06:39:45;;;;;;;26.40;10.40;;;;;;;30.05;47.22;98900.80;67781;1278;1016870;-64
2023/09/11 06:42:47;;;;;;;26.60;11.10;;;;;;;30.34;47.06;98898.23;67805;1278;1016462;-64
2023/09/11 06:45:50;;;;;;;29.40;11.00;;;;;;;30.72;46.37;98896.77;67731;1278;1016692;-64
2023/09/11 06:48:53;;;;;;;27.30;12.30;;;;;;;30.87;46.17;98895.54;67769;1278;1016493;-65
2023/09/11 06:51:56;;;;;;;29.20;10.80;;;;;;;30.98;45.89;98896.75;67807;1278;1016392;-63
2023/09/11 06:54:58;;;;;;;26.90;10.80;;;;;;;31.15;45.53;98897.70;67785;1278;1016444;-63
2023/09/11 06:58:00;;;;;;;30.80;10.80;;;;;;;31.38;45.38;98899.39;67775;1278;1016457;-64
2023/09/11 07:01:03;;;;;;;24.90;10.70;;;;;;;31.74;45.05;98895.84;67746;1278;1016551;-64
2023/09/11 07:04:05;;;;;;;25.60;9.60;;;;;;;32.01;44.74;98895.27;67764;1278;1019103;-65
2023/09/11 07:07:08;;;;;;;27.10;10.30;;;;;;;32.10;44.43;98895.38;67725;1278;1016090;-64
2023/09/11 07:10:11;;;;;;;25.90;11.20;;;;;;;32.25;44.44;98894.05;67712;1278;1016546;-64
2023/09/11 07:13:13;;;;;;;26.50;10.40;;;;;;;32.56;43.99;98894.13;67763;1278;1016747;-65
2023/09/11 07:16:16;;;;;;;28.20;11.00;;;;;;;32.75;43.85;98896.27;67762;1278;1016505;-64
2023/09/11 07:19:18;;;;;;;28.90;11.20;;;;;;;32.87;43.49;98898.94;67728;1279;1016647;-66
2023/09/11 07:22:20;;;;;;;27.50;11.40;;;;;;;32.98;43.11;98899.07;67725;1278;1016436;-65
2023/09/11 07:25:23;;;;;;;25.90;11.20;;;;;;;33.20;42.82;98894.20;67718;1278;1016168;-65
2023/09/11 07:28:27;;;;;;;28.30;10.90;;;;;;;33.54;41.99;98894.46;67735;1279;1016421;-64
2023/09/11 07:31:29;;;;;;;31.80;13.10;;;;;;;33.64;40.93;98888.95;67767;1278;1016423;-65
2023/09/11 07:34:32;;;;;;;30.40;13.00;;;;;;;33.44;40.97;98893.23;67783;1279;1016309;-65
2023/09/11 07:37:34;;;;;;;31.90;13.60;;;;;;;33.55;41.38;98890.13;67701;1279;1016458;-65
2023/09/11 07:40:37;;;;;;;30.10;13.30;;;;;;;33.77;41.37;98886.77;67706;1279;1016423;-64
2023/09/11 07:43:39;;;;;;;27.90;13.70;;;;;;;34.03;40.73;98886.09;67715;1279;1016547;-64
2023/09/11 07:46:42;;;;;;;27.90;13.10;;;;;;;34.20;41.07;98884.48;67759;1259;1016368;-65
2023/09/11 07:49:44;;;;;;;26.60;10.60;;;;;;;34.60;40.52;98879.23;67666;1280;1016325;-66
2023/09/11 07:52:47;;;;;;;25.50;9.90;;;;;;;34.45;38.51;98879.77;67706;1280;1017349;-65
2023/09/11 07:55:49;;;;;;;26.70;10.60;;;;;;;33.93;37.70;98879.77;67612;1280;1016897;-65
2023/09/11 07:58:51;;;;;;;25.50;10.20;;;;;;;33.63;39.26;98873.54;67711;1280;1016156;-65
2023/09/11 08:01:54;;;;;;;23.70;10.40;;;;;;;33.93;39.33;98871.66;67710;1280;1016488;-65
2023/09/11 08:04:56;;;;;;;23.00;10.60;;;;;;;34.44;38.65;98870.69;67719;1280;1018260;-65
2023/09/11 08:08:01;;;;;;;27.10;10.40;;;;;;;34.59;38.03;98867.29;67649;1278;1016744;-65
2023/09/11 08:11:03;;;;;;;24.70;10.30;;;;;;;34.65;37.62;98863.13;67808;1278;1016449;-65
2023/09/11 08:14:06;;;;;;;22.80;9.10;;;;;;;34.86;37.82;98864.05;67788;1278;1016096;-65
2023/09/11 08:17:08;;;;;;;24.70;9.70;;;;;;;34.74;37.12;98860.64;67807;1278;1016356;-65
2023/09/11 08:20:11;;;;;;;26.40;9.40;;;;;;;34.65;36.20;98858.11;67770;1278;1016779;-65
2023/09/11 08:23:13;;;;;;;22.70;8.80;;;;;;;34.58;37.11;98860.58;67750;1278;1016470;-65
2023/09/11 08:26:16;;;;;;;23.30;9.20;;;;;;;34.97;37.25;98857.48;67834;1278;1016495;-65
2023/09/11 08:29:19;;;;;;;22.60;9.40;;;;;;;35.13;36.32;98856.11;67756;1278;1016485;-65
2023/09/11 08:32:21;;;;;;;22.90;9.20;;;;;;;35.14;35.93;98857.33;67760;1278;1016157;-65
2023/09/11 08:35:24;;;;;;;27.50;10.40;;;;;;;35.15;35.79;98854.34;67728;1278;1016465;-65
2023/09/11 08:38:26;;;;;;;24.00;10.00;;;;;;;34.89;35.26;98857.45;67782;1279;1016171;-65
2023/09/11 08:41:28;;;;;;;26.00;9.30;;;;;;;34.76;36.15;98854.41;67705;1279;1016321;-64
2023/09/11 08:44:31;;;;;;;24.10;10.30;;;;;;;34.88;36.14;98854.76;67714;1279;1016497;-64
2023/09/11 08:47:33;;;;;;;23.10;9.50;;;;;;;35.28;36.63;98855.05;67697;1279;1016520;-64
2023/09/11 08:50:36;;;;;;;22.30;9.80;;;;;;;35.78;35.98;98857.08;67719;1279;1016412;-65
2023/09/11 08:53:39;;;;;;;22.70;9.00;;;;;;;36.14;36.00;98853.09;67713;1279;1016486;-64
2023/09/11 08:56:41;;;;;;;22.40;9.40;;;;;;;36.58;35.40;98857.17;67705;1279;1018471;-64
2023/09/11 08:59:43;;;;;;;22.40;8.60;;;;;;;36.90;34.80;98854.89;67714;1279;1016846;-64
2023/09/11 09:02:46;;;;;;;27.30;9.80;;;;;;;36.70;33.98;98861.14;67743;1279;1015959;-65
2023/09/11 09:05:49;;;;;;;21.40;8.70;;;;;;;36.64;34.50;98855.36;67717;1279;1018208;-64
2023/09/11 09:08:51;;;;;;;22.00;9.50;;;;;;;36.63;34.21;98860.00;67712;1279;1016407;-65
2023/09/11 09:11:54;;;;;;;25.60;8.50;;;;;;;36.70;34.09;98858.34;67718;1279;1016292;-65
2023/09/11 09:14:56;;;;;;;22.10;8.80;;;;;;;36.71;34.23;98862.23;67729;1279;1016419;-64
2023/09/11 09:17:58;;;;;;;25.20;9.80;;;;;;;37.06;34.29;98860.96;67728;1279;1016579;-64
2023/09/11 09:21:01;;;;;;;21.60;8.90;;;;;;;37.16;33.50;98857.98;67731;1279;1019063;-65
2023/09/11 09:24:03;;;;;;;22.40;8.40;;;;;;;36.79;32.78;98856.71;67690;1279;1016199;-65
2023/09/11 09:27:06;;;;;;;22.70;8.70;;;;;;;36.62;33.35;98852.40;67680;1279;1016845;-65
2023/09/11 09:30:08;;;;;;;23.10;8.20;;;;;;;36.70;33.80;98849.45;67768;1279;1016383;-65
2023/09/11 09:33:11;;;;;;;23.40;9.30;;;;;;;36.99;33.79;98852.02;67721;1279;1017997;-64
2023/09/11 09:36:13;;;;;;;21.20;8.80;;;;;;;37.29;32.97;98848.23;67734;1279;1017101;-65
2023/09/11 09:39:16;;;;;;;24.60;8.80;;;;;;;37.22;31.79;98850.27;67733;1279;1018243;-64
2023/09/11 09:42:18;;;;;;;21.70;8.00;;;;;;;36.69;31.98;98847.26;67729;1279;1016371;-65
2023/09/11 09:45:21;;;;;;;22.60;8.40;;;;;;;36.71;32.06;98842.67;67727;1279;1016785;-64
2023/09/11 09:48:23;;;;;;;22.10;8.50;;;;;;;36.51;31.35;98842.02;67711;1279;1016910;-65
2023/09/11 09:51:28;;;;;;;20.20;8.10;;;;;;;36.77;32.23;98836.00;67740;1279;1018792;-66
2023/09/11 09:54:30;;;;;;;20.70;7.70;;;;;;;37.01;31.50;98832.45;67707;1279;1016406;-66
2023/09/11 09:57:33;;;;;;;22.70;7.40;;;;;;;36.93;31.22;98832.05;67760;1279;1016427;-65
2023/09/11 10:00:35;;;;;;;19.70;7.50;;;;;;;36.85;30.05;98829.22;67705;1279;1016436;-65
2023/09/11 10:03:38;;;;;;;19.80;7.00;;;;;;;36.76;30.60;98824.89;67637;1279;1018336;-65
2023/09/11 10:06:40;;;;;;;20.50;6.80;;;;;;;36.30;30.02;98825.54;67741;1279;1016426;-64
2023/09/11 10:09:43;;;;;;;22.80;7.30;;;;;;;36.20;30.17;98820.27;67742;1279;1019339;-65
2023/09/11 10:12:45;;;;;;;18.90;7.30;;;;;;;36.14;30.33;98821.75;67738;1279;1016611;-65
2023/09/11 10:15:47;;;;;;;19.70;7.10;;;;;;;36.11;29.82;98816.11;67703;1279;1016240;-64
2023/09/11 10:18:50;;;;;;;20.70;7.90;;;;;;;35.81;30.81;98813.73;67703;1279;1016447;-64
2023/09/11 10:21:52;;;;;;;20.70;7.30;;;;;;;35.73;30.65;98812.44;67718;1279;1016215;-64
2023/09/11 10:24:55;;;;;;;19.20;7.00;;;;;;;35.72;29.99;98813.04;67804;1278;1015980;-65
2023/09/11 10:27:57;;;;;;;19.70;7.00;;;;;;;36.22;30.59;98803.95;67839;1278;1016470;-65
2023/09/11 10:31:00;;;;;;;23.60;7.40;;;;;;;36.77;30.67;98804.75;67779;1278;1016429;-64
2023/09/11 10:34:02;;;;;;;18.40;6.60;;;;;;;36.90;29.51;98804.16;67768;1278;1018105;-65
2023/09/11 10:37:04;;;;;;;18.80;6.30;;;;;;;36.79;29.82;98802.63;67801;1278;1016460;-65
2023/09/11 10:40:07;;;;;;;20.10;7.60;;;;;;;36.55;29.56;98801.34;67823;1278;1016304;-64
2023/09/11 10:43:09;;;;;;;22.60;6.90;;;;;;;36.52;29.70;98798.48;67770;1278;1017382;-63
2023/09/11 10:46:12;;;;;;;20.60;8.10;;;;;;;36.81;29.93;98792.20;67784;1278;1016475;-65
2023/09/11 10:49:14;;;;;;;21.50;8.00;;;;;;;36.87;29.84;98795.19;67766;1278;1016338;-64
2023/09/11 10:52:16;;;;;;;21.90;7.30;;;;;;;36.85;29.10;98795.94;67814;1278;1016458;-64
2023/09/11 10:55:19;;;;;;;16.60;6.10;;;;;;;36.70;29.08;98788.75;67817;1278;1016444;-65
2023/09/11 10:58:21;;;;;;;18.30;7.00;;;;;;;36.53;29.22;98785.55;67816;1278;1016160;-65
2023/09/11 11:01:24;;;;;;;18.50;6.40;;;;;;;36.69;29.15;98780.05;67796;1278;1015721;-65
2023/09/11 11:04:26;;;;;;;19.50;7.60;;;;;;;36.90;29.14;98782.85;67754;1278;1016817;-66
2023/09/11 11:07:28;;;;;;;20.80;7.20;;;;;;;36.95;29.05;98782.33;67779;1278;1016503;-65
2023/09/11 11:10:31;;;;;;;18.70;7.00;;;;;;;36.92;29.21;98784.70;67833;1278;1016484;-65
2023/09/11 11:13:35;;;;;;;20.10;6.90;;;;;;;36.53;29.06;98787.61;67803;1278;1018282;-65
2023/09/11 11:16:38;;;;;;;18.40;6.80;;;;;;;36.45;29.37;98789.45;67784;1278;1016404;-65
2023/09/11 11:19:40;;;;;;;21.90;7.10;;;;;;;36.46;29.69;98788.13;67760;1278;1016596;-64
2023/09/11 11:22:43;;;;;;;19.60;7.30;;;;;;;36.59;29.50;98780.17;67815;1278;1016362;-65
2023/09/11 11:25:45;;;;;;;20.10;7.10;;;;;;;36.65;29.47;98781.78;67819;1278;1016789;-64
2023/09/11 11:28:47;;;;;;;20.60;7.10;;;;;;;36.68;29.83;98782.83;67810;1278;1016489;-65
2023/09/11 11:31:50;;;;;;;19.30;7.20;;;;;;;36.54;29.11;98779.65;67652;1278;1016463;-64
2023/09/11 11:34:52;;;;;;;18.80;6.80;;;;;;;36.87;29.82;98777.31;67663;1278;1016261;-65
2023/09/11 11:37:55;;;;;;;20.40;7.20;;;;;;;37.31;29.89;98770.02;67619;1278;1016406;-65
2023/09/11 11:40:57;;;;;;;19.10;7.00;;;;;;;37.69;28.95;98767.98;67711;1278;1016440;-64
2023/09/11 11:43:59;;;;;;;19.10;6.90;;;;;;;37.94;28.78;98771.28;67702;1278;1019159;-65
2023/09/11 11:47:02;;;;;;;16.40;6.60;;;;;;;38.14;28.76;98771.05;67806;1278;1016527;-65
2023/09/11 11:50:04;;;;;;;17.90;7.00;;;;;;;38.38;28.59;98765.32;67829;1278;1016263;-66
2023/09/11 11:53:06;;;;;;;20.00;7.30;;;;;;;38.66;28.12;98764.41;67791;1278;1016826;-65
2023/09/11 11:56:09;;;;;;;18.20;6.20;;;;;;;38.48;27.77;98760.91;67804;1278;1016435;-65
2023/09/11 11:59:11;;;;;;;17.40;6.60;;;;;;;37.88;27.48;98765.86;67811;1278;1016417;-66
2023/09/11 12:02:14;;;;;;;15.60;5.90;;;;;;;37.48;27.39;98766.60;67850;1278;1016426;-65
2023/09/11 12:05:16;;;;;;;18.30;6.40;;;;;;;37.51;27.52;98764.75;67734;1278;1016404;-66
2023/09/11 12:08:18;;;;;;;17.40;6.30;;;;;;;37.66;27.86;98759.17;67799;1278;1016293;-65
2023/09/11 12:11:21;;;;;;;20.50;6.70;;;;;;;37.95;27.85;98757.10;67810;1278;1018609;-65
2023/09/11 12:14:23;;;;;;;18.40;6.80;;;;;;;38.15;27.80;98761.29;67812;1278;1016415;-65
2023/09/11 12:17:26;;;;;;;17.20;6.20;;;;;;;38.23;27.55;98758.68;67830;1278;1016377;-65
2023/09/11 12:20:28;;;;;;;16.30;6.10;;;;;;;38.24;26.87;98751.33;67816;1278;1016561;-65
2023/09/11 12:23:31;;;;;;;17.90;6.80;;;;;;;38.45;26.54;98746.51;67783;1278;1016402;-65
2023/09/11 12:26:33;;;;;;;18.00;6.40;;;;;;;38.40;26.74;98748.55;67767;1278;1016418;-65
2023/09/11 12:29:36;;;;;;;17.50;6.70;;;;;;;38.13;27.13;98744.21;67796;1278;1016198;-66
2023/09/11 12:32:38;;;;;;;18.40;6.70;;;;;;;37.79;26.91;98751.64;67818;1278;1016433;-65
2023/09/11 12:35:40;;;;;;;17.90;6.70;;;;;;;37.81;27.31;98746.77;67799;1278;1016408;-65
2023/09/11 12:38:43;;;;;;;17.10;5.90;;;;;;;37.90;26.54;98746.22;67760;1278;1016661;-65
2023/09/11 12:41:46;;;;;;;20.80;6.90;;;;;;;38.06;27.36;98742.58;67818;1278;1016647;-65
2023/09/11 12:44:48;;;;;;;18.20;6.90;;;;;;;38.11;26.86;98744.82;67818;1278;1016472;-65
2023/09/11 12:47:50;;;;;;;19.90;7.40;;;;;;;37.77;26.93;98746.50;67762;1278;1016324;-64
2023/09/11 12:50:53;;;;;;;19.40;6.80;;;;;;;37.57;26.55;98746.21;67764;1278;1016454;-65
2023/09/11 12:53:55;;;;;;;17.50;6.80;;;;;;;37.91;27.02;98740.58;67759;1278;1017692;-64
2023/09/11 12:56:58;;;;;;;19.20;6.50;;;;;;;38.57;27.21;98732.98;67802;1278;1016329;-65
2023/09/11 13:00:00;;;;;;;19.00;6.90;;;;;;;38.72;25.97;98732.61;67807;1278;1017239;-64
2023/09/11 13:03:05;;;;;;;19.80;6.70;;;;;;;38.38;25.80;98732.02;67826;1278;1016746;-65
2023/09/11 13:06:08;;;;;;;18.80;6.50;;;;;;;38.78;26.39;98725.96;67784;1278;1018899;-65
2023/09/11 13:09:11;;;;;;;19.40;6.60;;;;;;;38.79;25.44;98728.59;67803;1278;1016104;-65
2023/09/11 13:12:13;;;;;;;17.50;6.50;;;;;;;38.57;25.29;98725.15;67786;1278;1017375;-65
2023/09/11 13:15:15;;;;;;;17.20;6.20;;;;;;;38.67;25.65;98717.90;67796;1278;1016494;-65
2023/09/11 13:18:18;;;;;;;16.40;6.20;;;;;;;38.50;25.65;98714.39;67813;1278;1016357;-65
2023/09/11 13:21:21;;;;;;;20.40;6.40;;;;;;;38.48;25.58;98714.62;67805;1278;1016481;-64
2023/09/11 13:24:23;;;;;;;19.10;6.80;;;;;;;38.42;25.48;98716.94;67754;1278;1015927;-65
2023/09/11 13:27:26;;;;;;;19.60;7.00;;;;;;;38.19;26.08;98717.88;67798;1278;1019651;-64
2023/09/11 13:30:28;;;;;;;16.90;6.50;;;;;;;38.08;26.15;98715.42;67807;1278;1016592;-65
2023/09/11 13:33:31;;;;;;;19.20;6.30;;;;;;;38.15;25.81;98709.84;67832;1278;1016787;-65
2023/09/11 13:36:33;;;;;;;16.20;6.30;;;;;;;38.67;25.59;98706.84;67820;1278;1016442;-65
2023/09/11 13:39:35;;;;;;;18.20;6.70;;;;;;;39.06;26.05;98705.80;67740;1278;1016359;-65
2023/09/11 13:42:38;;;;;;;18.30;7.10;;;;;;;39.42;25.51;98708.90;67791;1278;1018266;-65
2023/09/11 13:45:40;;;;;;;20.30;6.30;;;;;;;39.36;25.71;98706.76;67725;1278;1016448;-65
2023/09/11 13:48:43;;;;;;;19.80;6.00;;;;;;;39.14;25.72;98710.14;67772;1278;1016400;-65
2023/09/11 13:51:45;;;;;;;16.40;6.10;;;;;;;38.92;25.35;98709.11;67826;1278;1016273;-65
2023/09/11 13:54:47;;;;;;;17.00;6.00;;;;;;;38.99;25.41;98706.60;67774;1278;1016387;-65
2023/09/11 13:57:50;;;;;;;19.00;6.00;;;;;;;38.77;25.14;98707.55;67774;1278;1016469;-65